This is the latest recevied weather packets stored in our database for station/object IU0SZS-10. If no packets are shown the sender has not sent any weather packets the latest 10 day(s).
| Time | Temp. | Humidity | Pressure | Rain* | Wind** | Luminosity | Snow |
|---|---|---|---|---|---|---|---|
| 1777753782 | 12.22° C | 39% | 921.9 hPa | - | - | - | - |
| 1777752882 | 12.22° C | 43% | 921.9 hPa | - | - | - | - |
| 1777751982 | 12.22° C | 44% | 921.9 hPa | - | - | - | - |
| 1777751082 | 12.22° C | 44% | 921.8 hPa | - | - | - | - |
| 1777750227 | 12.22° C | 44% | 921.7 hPa | - | - | - | - |
| 1777750182 | 12.22° C | 44% | 921.7 hPa | - | - | - | - |
| 1777749281 | 12.22° C | 44% | 921.6 hPa | - | - | - | - |
| 1777748381 | 12.78° C | 42% | 921.6 hPa | - | - | - | - |
| 1777747481 | 12.78° C | 42% | 921.5 hPa | - | - | - | - |
| 1777746581 | 13.33° C | 40% | 921.5 hPa | - | - | - | - |
| 1777745714 | 14.44° C | 38% | 921.4 hPa | - | - | - | - |
| 1777745681 | 14.44° C | 38% | 921.4 hPa | - | - | - | - |
| 1777744781 | 16.67° C | 33% | 921.4 hPa | - | - | - | - |
| 1777743912 | 18.33° C | 30% | 921.4 hPa | - | - | - | - |
| 1777743880 | 18.33° C | 30% | 921.4 hPa | - | - | - | - |
| 1777742980 | 20° C | 28% | 921.4 hPa | - | - | - | - |
| 1777742080 | 21.11° C | 26% | 921.4 hPa | - | - | - | - |
| 1777741180 | 21.11° C | 26% | 921.5 hPa | - | - | - | - |
| 1777740280 | 21.11° C | 26% | 921.6 hPa | - | - | - | - |
| 1777739380 | 20.56° C | 25% | 921.8 hPa | - | - | - | - |
| 1777738479 | 20.56° C | 25% | 921.8 hPa | - | - | - | - |
| 1777737579 | 20° C | 26% | 921.8 hPa | - | - | - | - |
| 1777736679 | 20.56° C | 25% | 922 hPa | - | - | - | - |
| 1777735779 | 20° C | 25% | 922 hPa | - | - | - | - |
| 1777734879 | 20° C | 25% | 922.2 hPa | - | - | - | - |
* Rain since midnight (hover to see other rain measurements)
** Current wind speed in m/s (hover to see current wind gust speed)